Terminal Aerodrome Forecast
Issued by NWS Riverton, WY

Home | Current Version | Previous Version | Text Only | Print | Product List | Glossary On
Versions: 1 2 3 4 5 6 7 8 9 10 11 12 13
236
FTUS45 KRIW 270541
TAFRIW
TAF
KRIW 270541Z 2706/2806 19007KT P6SM SCT200
     FM271800 VRB06KT P6SM VCSH SCT030 BKN060
     FM272200 22008KT P6SM SCT060 BKN150
     FM280400 30015G23KT P6SM SCT150=

USA.gov is the U.S. government's official web portal to all federal, state and local government web resources and services.